Time;durP1;ratioP1;P1;durP2;ratioP2;P2;SDS_P1;SDS_P2;PMS_P1;PMS_P2;Temp;Humidity;BMP_temperature;BMP_pressure;BME280_temperature;BME280_humidity;BME280_pressure;Samples;Min_cycle;Max_cycle;Signal;HPM_P1;HPM_P2
2023/03/01 00:00:53;;;;;;;26.77;14.80;;;;;;;;;;5004188;28;20571;-68
2023/03/01 00:03:19;;;;;;;24.30;15.10;;;;;;;;;;5004170;28;20622;-69
2023/03/01 00:05:47;;;;;;;20.75;12.23;;;;;;;;;;5003505;28;20046;-69
2023/03/01 00:08:13;;;;;;;18.55;12.43;;;;;;;;;;5004553;28;20042;-69
2023/03/01 00:10:39;;;;;;;26.42;14.43;;;;;;;;;;5004088;28;20042;-69
2023/03/01 00:13:05;;;;;;;23.13;12.63;;;;;;;;;;5002030;28;20046;-69
2023/03/01 00:15:34;;;;;;;16.33;9.32;;;;;;;;;;5004378;28;20050;-69
2023/03/01 00:18:00;;;;;;;23.00;13.98;;;;;;;;;;5004981;28;20104;-69
2023/03/01 00:20:25;;;;;;;19.30;11.23;;;;;;;;;;5006042;28;20038;-69
2023/03/01 00:22:51;;;;;;;22.77;15.18;;;;;;;;;;5004861;28;20495;-69
2023/03/01 00:25:16;;;;;;;25.05;14.25;;;;;;;;;;5004296;28;20054;-69
2023/03/01 00:27:41;;;;;;;26.35;13.27;;;;;;;;;;5003550;28;20052;-69
2023/03/01 00:30:08;;;;;;;19.63;12.50;;;;;;;;;;5003705;28;20050;-69
2023/03/01 00:32:33;;;;;;;21.10;12.60;;;;;;;;;;5003867;28;20033;-69
2023/03/01 00:34:58;;;;;;;24.17;16.00;;;;;;;;;;5004686;28;20411;-69
2023/03/01 00:37:24;;;;;;;25.02;13.90;;;;;;;;;;5002983;28;20518;-69
2023/03/01 00:39:49;;;;;;;23.00;13.70;;;;;;;;;;5003709;28;20057;-69
2023/03/01 00:42:16;;;;;;;24.92;12.80;;;;;;;;;;5002552;28;20104;-69
2023/03/01 00:44:41;;;;;;;26.08;13.98;;;;;;;;;;5002664;28;20049;-68
2023/03/01 00:47:07;;;;;;;23.65;13.43;;;;;;;;;;5001682;28;20052;-70
2023/03/01 00:49:32;;;;;;;23.30;12.70;;;;;;;;;;5000487;28;20046;-68
2023/03/01 00:51:58;;;;;;;19.05;12.75;;;;;;;;;;5003093;28;20150;-70
2023/03/01 00:54:23;;;;;;;20.95;12.73;;;;;;;;;;5003790;28;20045;-69
2023/03/01 00:56:48;;;;;;;21.67;13.13;;;;;;;;;;5002409;28;20407;-71
2023/03/01 00:59:14;;;;;;;23.90;13.15;;;;;;;;;;5003097;28;20505;-71
2023/03/01 01:01:39;;;;;;;25.27;15.38;;;;;;;;;;5003810;28;20088;-71
2023/03/01 01:04:08;;;;;;;24.90;13.93;;;;;;;;;;5019992;28;20128;-71
2023/03/01 01:06:39;;;;;;;24.65;14.10;;;;;;;;;;5003454;28;20092;-70
2023/03/01 01:09:06;;;;;;;16.17;9.75;;;;;;;;;;5017260;28;20036;-69
2023/03/01 01:11:32;;;;;;;21.40;11.95;;;;;;;;;;4999595;28;20049;-70
2023/03/01 01:13:58;;;;;;;23.05;13.00;;;;;;;;;;5003156;28;20049;-69
2023/03/01 01:16:25;;;;;;;24.20;13.38;;;;;;;;;;5000141;28;21045;-68
2023/03/01 01:18:51;;;;;;;21.90;14.10;;;;;;;;;;5000928;28;20112;-68
2023/03/01 01:21:20;;;;;;;21.42;14.07;;;;;;;;;;4999204;28;20050;-69
2023/03/01 01:23:46;;;;;;;22.80;13.35;;;;;;;;;;5000239;28;20113;-69
2023/03/01 01:26:33;;;;;;;25.00;14.73;;;;;;;;;;4999369;28;20048;-69
2023/03/01 01:29:00;;;;;;;22.95;13.93;;;;;;;;;;5001946;28;20072;-69
2023/03/01 01:31:26;;;;;;;18.08;11.82;;;;;;;;;;5000989;28;20557;-69
2023/03/01 01:33:53;;;;;;;13.98;9.63;;;;;;;;;;5017524;28;20057;-69
2023/03/01 01:36:19;;;;;;;22.30;13.65;;;;;;;;;;5001227;28;20049;-69
2023/03/01 01:38:45;;;;;;;17.13;8.23;;;;;;;;;;5001370;28;20053;-68
2023/03/01 01:41:11;;;;;;;20.90;13.38;;;;;;;;;;5000623;28;20050;-68
2023/03/01 01:43:43;;;;;;;26.50;14.68;;;;;;;;;;5001229;28;20053;-67
2023/03/01 01:46:27;;;;;;;;;;;;;;;;;;5003199;28;20050;-69
2023/03/01 01:48:58;;;;;;;20.50;12.82;;;;;;;;;;5000975;28;19924;-68
2023/03/01 01:51:27;;;;;;;20.30;10.88;;;;;;;;;;5000185;28;20207;-68
2023/03/01 01:53:58;;;;;;;20.80;13.95;;;;;;;;;;5001739;28;20045;-68
2023/03/01 01:56:26;;;;;;;14.20;9.32;;;;;;;;;;5002405;28;20046;-68
2023/03/01 01:58:52;;;;;;;23.73;14.38;;;;;;;;;;5001584;28;20062;-68
2023/03/01 02:01:18;;;;;;;24.05;14.40;;;;;;;;;;4998635;28;20046;-68
2023/03/01 02:03:46;;;;;;;20.88;13.43;;;;;;;;;;5001872;28;20053;-70
2023/03/01 02:06:23;;;;;;;19.10;12.27;;;;;;;;;;5017083;28;20057;-69
2023/03/01 02:08:52;;;;;;;19.63;13.60;;;;;;;;;;5000159;28;20042;-70
2023/03/01 02:11:18;;;;;;;14.02;9.38;;;;;;;;;;4995846;28;20058;-70
2023/03/01 02:13:47;;;;;;;21.45;12.68;;;;;;;;;;5002065;28;20038;-70
2023/03/01 02:16:15;;;;;;;23.70;15.00;;;;;;;;;;5000329;28;20100;-71
2023/03/01 02:18:42;;;;;;;23.17;13.57;;;;;;;;;;4999899;28;20056;-70
2023/03/01 02:21:30;;;;;;;24.15;15.70;;;;;;;;;;5015804;28;20493;-70
2023/03/01 02:23:56;;;;;;;22.10;14.05;;;;;;;;;;5001712;28;20521;-67
2023/03/01 02:26:41;;;;;;;24.98;14.65;;;;;;;;;;5002044;28;20045;-70
2023/03/01 02:29:07;;;;;;;22.05;12.55;;;;;;;;;;5000927;28;20129;-70
2023/03/01 02:31:41;;;;;;;27.98;11.07;;;;;;;;;;5001654;28;20148;-70
2023/03/01 02:34:14;;;;;;;19.10;11.60;;;;;;;;;;4999797;28;20075;-70
2023/03/01 02:36:53;;;;;;;18.65;11.32;;;;;;;;;;5001744;28;20089;-71
2023/03/01 02:39:25;;;;;;;28.45;14.60;;;;;;;;;;5015285;28;20125;-71
2023/03/01 02:41:53;;;;;;;22.15;12.25;;;;;;;;;;5000075;28;20093;-70
2023/03/01 02:44:19;;;;;;;26.25;14.10;;;;;;;;;;4994449;28;20523;-70
2023/03/01 02:46:50;;;;;;;16.85;11.50;;;;;;;;;;5000280;28;20546;-69
2023/03/01 02:49:20;;;;;;;27.43;14.87;;;;;;;;;;5000312;28;20045;-70
2023/03/01 02:52:03;;;;;;;24.15;14.50;;;;;;;;;;4999961;28;20712;-69
2023/03/01 02:54:56;;;;;;;25.30;16.38;;;;;;;;;;5000547;28;20050;-68
2023/03/01 02:57:23;;;;;;;21.60;12.48;;;;;;;;;;5001171;28;20086;-70
2023/03/01 02:59:51;;;;;;;23.55;13.40;;;;;;;;;;4999406;28;20054;-70
2023/03/01 03:02:38;;;;;;;21.58;13.82;;;;;;;;;;4999921;28;20065;-70
2023/03/01 03:05:14;;;;;;;19.67;10.50;;;;;;;;;;5015332;28;20499;-70
2023/03/01 03:07:42;;;;;;;24.55;14.10;;;;;;;;;;5000129;28;20117;-70
2023/03/01 03:10:14;;;;;;;25.15;14.30;;;;;;;;;;4999016;28;20042;-70
2023/03/01 03:12:40;;;;;;;24.83;14.18;;;;;;;;;;4997793;28;20408;-70
2023/03/01 03:15:09;;;;;;;22.80;14.93;;;;;;;;;;4998539;28;20033;-69
2023/03/01 03:17:37;;;;;;;24.85;13.35;;;;;;;;;;4998708;28;20045;-70
2023/03/01 03:20:04;;;;;;;27.45;14.50;;;;;;;;;;5015187;28;20052;-69
2023/03/01 03:22:30;;;;;;;23.33;13.20;;;;;;;;;;5001075;28;20129;-70
2023/03/01 03:24:56;;;;;;;21.60;11.95;;;;;;;;;;5000888;28;20152;-69
2023/03/01 03:27:21;;;;;;;9.45;7.03;;;;;;;;;;5000009;28;20561;-70
2023/03/01 03:29:46;;;;;;;22.92;13.50;;;;;;;;;;4999948;28;20050;-70
2023/03/01 03:32:12;;;;;;;22.00;12.18;;;;;;;;;;5000518;28;20115;-69
2023/03/01 03:34:37;;;;;;;21.30;13.45;;;;;;;;;;5000688;28;20037;-70
2023/03/01 03:37:03;;;;;;;26.13;14.30;;;;;;;;;;5000154;28;20048;-69
2023/03/01 03:39:34;;;;;;;16.58;11.50;;;;;;;;;;4999654;28;20728;-70
2023/03/01 03:42:00;;;;;;;24.10;13.63;;;;;;;;;;5000556;28;20050;-70
2023/03/01 03:44:25;;;;;;;25.45;15.05;;;;;;;;;;5001184;28;20049;-69
2023/03/01 03:46:51;;;;;;;21.13;11.07;;;;;;;;;;5000590;28;20060;-68
2023/03/01 03:49:16;;;;;;;27.00;15.80;;;;;;;;;;4998724;28;20049;-69
2023/03/01 03:51:42;;;;;;;22.05;13.57;;;;;;;;;;5000397;28;20050;-68
2023/03/01 03:54:07;;;;;;;23.35;13.63;;;;;;;;;;5000718;28;20054;-69
2023/03/01 03:56:32;;;;;;;26.70;13.20;;;;;;;;;;5000769;28;20050;-69
2023/03/01 03:58:58;;;;;;;24.08;14.93;;;;;;;;;;5000681;28;20053;-69
2023/03/01 04:01:23;;;;;;;23.25;13.80;;;;;;;;;;4999112;28;20050;-69
2023/03/01 04:03:54;;;;;;;18.80;11.77;;;;;;;;;;5000961;28;20046;-69
2023/03/01 04:06:19;;;;;;;25.42;13.98;;;;;;;;;;5001022;28;20042;-69
2023/03/01 04:08:45;;;;;;;23.30;15.18;;;;;;;;;;5000442;28;20456;-70
2023/03/01 04:11:26;;;;;;;21.85;13.88;;;;;;;;;;4996332;28;20048;-70
2023/03/01 04:13:55;;;;;;;29.07;17.93;;;;;;;;;;4999195;28;20050;-69
2023/03/01 04:16:20;;;;;;;26.10;15.52;;;;;;;;;;5001170;28;20046;-69
2023/03/01 04:18:46;;;;;;;25.55;14.73;;;;;;;;;;5000737;28;20034;-69
2023/03/01 04:21:12;;;;;;;25.17;15.35;;;;;;;;;;5000156;28;20038;-69
2023/03/01 04:23:38;;;;;;;23.55;13.85;;;;;;;;;;4998393;28;20550;-69
2023/03/01 04:26:03;;;;;;;25.45;15.52;;;;;;;;;;5002911;28;20486;-69
2023/03/01 04:28:35;;;;;;;26.00;15.20;;;;;;;;;;5003859;28;20067;-69
2023/03/01 04:31:12;;;;;;;28.95;15.65;;;;;;;;;;5002919;28;20045;-70
2023/03/01 04:33:40;;;;;;;25.27;16.70;;;;;;;;;;5000418;28;20050;-69
2023/03/01 04:36:08;;;;;;;25.48;15.95;;;;;;;;;;5003647;28;20088;-69
2023/03/01 04:38:36;;;;;;;25.88;14.73;;;;;;;;;;5003681;28;20049;-69
2023/03/01 04:41:03;;;;;;;26.27;16.50;;;;;;;;;;5002866;28;20965;-70
2023/03/01 04:43:28;;;;;;;26.35;15.35;;;;;;;;;;5003614;28;20096;-69
2023/03/01 04:45:54;;;;;;;28.55;16.77;;;;;;;;;;5000659;28;20077;-69
2023/03/01 04:48:19;;;;;;;39.15;18.17;;;;;;;;;;5003307;28;20040;-69
2023/03/01 04:50:45;;;;;;;33.20;17.05;;;;;;;;;;5002690;28;20052;-69
2023/03/01 04:53:10;;;;;;;19.15;12.73;;;;;;;;;;5001342;28;20091;-69
2023/03/01 04:55:35;;;;;;;24.88;12.93;;;;;;;;;;5001236;28;20049;-69
2023/03/01 04:58:01;;;;;;;24.98;16.98;;;;;;;;;;5003306;28;20053;-68
2023/03/01 05:00:26;;;;;;;26.90;16.52;;;;;;;;;;5002633;28;20068;-68
2023/03/01 05:02:54;;;;;;;27.88;18.15;;;;;;;;;;5002054;28;20084;-69
2023/03/01 05:05:26;;;;;;;30.02;19.75;;;;;;;;;;5002897;28;20061;-69
2023/03/01 05:07:53;;;;;;;31.70;18.70;;;;;;;;;;5002818;28;20050;-69
2023/03/01 05:10:20;;;;;;;29.33;18.05;;;;;;;;;;5002352;28;20049;-69
2023/03/01 05:12:46;;;;;;;22.83;13.55;;;;;;;;;;5003185;28;20045;-70
2023/03/01 05:15:11;;;;;;;26.98;16.63;;;;;;;;;;4999164;28;20050;-70
2023/03/01 05:17:37;;;;;;;21.13;14.30;;;;;;;;;;4996628;28;20049;-69
2023/03/01 05:20:08;;;;;;;25.77;14.45;;;;;;;;;;4999510;28;20081;-69
2023/03/01 05:22:33;;;;;;;22.30;14.07;;;;;;;;;;5000536;28;20042;-70
2023/03/01 05:24:59;;;;;;;26.00;16.48;;;;;;;;;;4998739;28;20104;-70
2023/03/01 05:27:24;;;;;;;26.67;14.48;;;;;;;;;;4982941;28;20041;-69
2023/03/01 05:29:50;;;;;;;27.27;15.43;;;;;;;;;;5000035;28;20049;-70
2023/03/01 05:32:16;;;;;;;21.92;12.98;;;;;;;;;;5000839;28;20103;-69
2023/03/01 05:34:41;;;;;;;25.75;16.58;;;;;;;;;;5000925;28;20041;-70
2023/03/01 05:37:08;;;;;;;26.70;16.00;;;;;;;;;;4999479;28;20041;-70
2023/03/01 05:39:33;;;;;;;29.80;16.60;;;;;;;;;;5000337;28;20073;-70
2023/03/01 05:42:01;;;;;;;27.58;15.25;;;;;;;;;;5002922;28;20696;-70
2023/03/01 05:44:30;;;;;;;21.65;12.57;;;;;;;;;;5003332;28;20050;-70
2023/03/01 05:46:56;;;;;;;25.33;14.95;;;;;;;;;;5003355;28;20116;-70
2023/03/01 05:49:23;;;;;;;26.55;16.42;;;;;;;;;;5015622;28;20099;-70
2023/03/01 05:51:51;;;;;;;27.40;15.35;;;;;;;;;;5001114;28;20123;-70
2023/03/01 05:54:17;;;;;;;33.55;18.23;;;;;;;;;;5001409;28;20041;-70
2023/03/01 05:56:44;;;;;;;26.02;15.07;;;;;;;;;;5003290;28;20056;-70
2023/03/01 05:59:10;;;;;;;26.67;15.10;;;;;;;;;;5001825;28;20517;-70
2023/03/01 06:01:36;;;;;;;20.90;12.15;;;;;;;;;;4999252;28;20584;-70
2023/03/01 06:04:02;;;;;;;28.33;16.08;;;;;;;;;;4999063;28;20049;-70
2023/03/01 06:06:28;;;;;;;25.13;14.13;;;;;;;;;;4999286;28;20080;-69
2023/03/01 06:08:53;;;;;;;33.40;15.35;;;;;;;;;;4998852;28;20482;-70
2023/03/01 06:11:20;;;;;;;25.73;15.63;;;;;;;;;;4999777;28;20063;-69
2023/03/01 06:13:46;;;;;;;29.20;16.00;;;;;;;;;;5003670;28;20061;-68
2023/03/01 06:16:12;;;;;;;34.50;17.40;;;;;;;;;;5000811;28;20049;-68
2023/03/01 06:18:38;;;;;;;27.88;14.80;;;;;;;;;;5001241;28;20053;-69
2023/03/01 06:21:04;;;;;;;25.83;15.07;;;;;;;;;;4999187;28;20049;-69
2023/03/01 06:23:30;;;;;;;32.42;17.85;;;;;;;;;;5002666;28;20046;-68
2023/03/01 06:25:58;;;;;;;25.58;15.05;;;;;;;;;;5002194;28;20132;-68
2023/03/01 06:28:25;;;;;;;25.35;14.73;;;;;;;;;;5000710;28;20038;-68
2023/03/01 06:30:51;;;;;;;24.17;15.43;;;;;;;;;;5000342;28;20107;-68
2023/03/01 06:33:19;;;;;;;29.60;15.75;;;;;;;;;;5001617;28;20046;-68
2023/03/01 06:35:46;;;;;;;25.92;14.77;;;;;;;;;;5017025;28;20077;-68
2023/03/01 06:38:11;;;;;;;33.90;16.33;;;;;;;;;;5003522;28;20076;-69
2023/03/01 06:40:37;;;;;;;27.45;14.73;;;;;;;;;;5004637;28;20073;-69
2023/03/01 06:43:02;;;;;;;27.35;14.93;;;;;;;;;;5001920;28;20876;-69
2023/03/01 06:45:28;;;;;;;24.77;14.05;;;;;;;;;;5003897;28;20054;-68
2023/03/01 06:48:01;;;;;;;26.85;16.38;;;;;;;;;;5003306;28;20044;-69
2023/03/01 06:50:26;;;;;;;25.80;13.70;;;;;;;;;;5002928;28;20052;-69
2023/03/01 06:52:56;;;;;;;21.75;12.45;;;;;;;;;;4997739;28;20049;-69
2023/03/01 06:55:21;;;;;;;28.25;18.42;;;;;;;;;;5003852;28;20088;-69
2023/03/01 06:57:47;;;;;;;22.45;14.05;;;;;;;;;;5004495;28;20650;-69
2023/03/01 07:00:13;;;;;;;20.38;11.60;;;;;;;;;;5002956;28;20042;-69
2023/03/01 07:02:39;;;;;;;30.23;15.43;;;;;;;;;;5005932;28;20069;-70
2023/03/01 07:05:04;;;;;;;31.70;17.08;;;;;;;;;;5003999;28;20081;-69
2023/03/01 07:07:30;;;;;;;26.60;14.98;;;;;;;;;;5000601;28;20541;-70
2023/03/01 07:09:55;;;;;;;22.92;12.82;;;;;;;;;;4999987;28;20053;-69
2023/03/01 07:12:20;;;;;;;30.52;16.48;;;;;;;;;;5001167;28;20537;-70
2023/03/01 07:14:46;;;;;;;30.45;18.60;;;;;;;;;;4999618;28;20478;-69
2023/03/01 07:17:11;;;;;;;32.53;16.02;;;;;;;;;;4999688;28;20046;-70
2023/03/01 07:19:37;;;;;;;31.75;14.82;;;;;;;;;;5000250;28;20050;-70
2023/03/01 07:22:04;;;;;;;30.10;14.02;;;;;;;;;;5000826;28;20054;-70
2023/03/01 07:24:29;;;;;;;22.55;13.00;;;;;;;;;;4999158;28;20052;-71
2023/03/01 07:26:55;;;;;;;29.58;15.57;;;;;;;;;;5009521;28;20057;-69
2023/03/01 07:29:20;;;;;;;32.63;16.92;;;;;;;;;;5000511;28;20128;-68
2023/03/01 07:31:46;;;;;;;30.23;16.70;;;;;;;;;;5000248;28;20125;-69
2023/03/01 07:34:11;;;;;;;30.40;17.42;;;;;;;;;;4999345;28;20495;-69
2023/03/01 07:36:37;;;;;;;24.15;14.32;;;;;;;;;;5000235;28;20304;-69
2023/03/01 07:39:03;;;;;;;21.50;12.75;;;;;;;;;;5000279;28;20049;-73
2023/03/01 07:41:29;;;;;;;22.90;13.35;;;;;;;;;;4999495;28;20049;-69
2023/03/01 07:43:54;;;;;;;20.25;12.32;;;;;;;;;;5000145;28;20053;-69
2023/03/01 07:46:20;;;;;;;25.90;13.48;;;;;;;;;;4999819;28;20188;-69
2023/03/01 07:48:46;;;;;;;27.10;16.48;;;;;;;;;;5001095;28;20052;-70
2023/03/01 07:51:12;;;;;;;26.77;15.30;;;;;;;;;;4997946;28;20042;-69
2023/03/01 07:53:38;;;;;;;35.15;18.95;;;;;;;;;;5000630;28;20116;-70
2023/03/01 07:56:07;;;;;;;29.50;19.08;;;;;;;;;;5000911;28;20148;-69
2023/03/01 07:58:37;;;;;;;29.25;16.58;;;;;;;;;;4999907;28;20081;-69
2023/03/01 08:11:21;;;;;;;28.38;14.48;;;;;;;;;;5036269;28;20580;-68
2023/03/01 08:13:49;;;;;;;25.90;14.10;;;;;;;;;;5036921;28;20057;-69
2023/03/01 08:16:15;;;;;;;26.50;16.08;;;;;;;;;;5037399;28;20063;-69
2023/03/01 08:18:42;;;;;;;32.47;19.55;;;;;;;;;;5037308;28;20052;-69
2023/03/01 08:21:16;;;;;;;36.88;20.00;;;;;;;;;;5036442;28;20094;-68
2023/03/01 08:23:42;;;;;;;25.02;14.82;;;;;;;;;;5036625;28;20056;-68
2023/03/01 08:26:14;;;;;;;32.63;17.10;;;;;;;;;;5038143;28;20335;-68
2023/03/01 08:28:40;;;;;;;26.10;15.70;;;;;;;;;;5037787;28;20049;-69
2023/03/01 08:31:25;;;;;;;30.17;16.33;;;;;;;;;;5036501;28;20053;-67
2023/03/01 08:33:56;;;;;;;27.15;15.40;;;;;;;;;;5037785;28;20087;-67
2023/03/01 08:36:23;;;;;;;30.50;14.63;;;;;;;;;;5036320;28;20049;-69
2023/03/01 08:38:49;;;;;;;28.80;16.52;;;;;;;;;;5038202;28;20498;-69
2023/03/01 08:41:14;;;;;;;29.42;16.02;;;;;;;;;;5036858;28;20045;-68
2023/03/01 08:43:41;;;;;;;28.40;16.17;;;;;;;;;;5038786;28;20057;-69
2023/03/01 08:46:06;;;;;;;31.63;18.23;;;;;;;;;;5037386;28;20444;-69
2023/03/01 08:48:32;;;;;;;25.60;15.43;;;;;;;;;;5037976;28;20049;-67
2023/03/01 08:51:07;;;;;;;24.05;14.50;;;;;;;;;;5037871;28;20055;-68
2023/03/01 08:53:32;;;;;;;28.40;15.07;;;;;;;;;;5036625;28;20049;-68
2023/03/01 08:56:02;;;;;;;16.48;11.13;;;;;;;;;;5038905;28;20747;-67
2023/03/01 08:58:28;;;;;;;25.83;14.75;;;;;;;;;;5037939;28;20099;-67
2023/03/01 09:00:53;;;;;;;31.85;16.88;;;;;;;;;;5038185;28;20060;-68
2023/03/01 09:03:19;;;;;;;27.15;16.98;;;;;;;;;;5039165;28;20037;-68
2023/03/01 09:05:45;;;;;;;20.02;11.70;;;;;;;;;;5039615;28;20051;-68
2023/03/01 09:08:11;;;;;;;25.92;16.10;;;;;;;;;;5039934;28;20049;-68
2023/03/01 09:10:39;;;;;;;25.05;14.43;;;;;;;;;;5054377;28;20047;-68
2023/03/01 09:13:04;;;;;;;28.83;17.58;;;;;;;;;;5057338;28;20325;-69
2023/03/01 09:15:30;;;;;;;29.90;16.42;;;;;;;;;;5059359;28;20064;-67
2023/03/01 09:17:55;;;;;;;31.58;17.38;;;;;;;;;;5060468;28;20051;-68
2023/03/01 09:20:21;;;;;;;34.85;15.60;;;;;;;;;;5058586;28;20040;-68
2023/03/01 09:22:46;;;;;;;31.20;17.50;;;;;;;;;;5046832;28;20052;-68
2023/03/01 09:25:12;;;;;;;26.08;14.77;;;;;;;;;;5042342;28;20386;-68
2023/03/01 09:27:37;;;;;;;24.40;14.15;;;;;;;;;;5043029;28;20083;-68
2023/03/01 09:30:04;;;;;;;26.83;15.57;;;;;;;;;;5040133;28;20098;-69
2023/03/01 09:32:32;;;;;;;26.65;14.43;;;;;;;;;;5024011;28;20533;-68
2023/03/01 09:35:03;;;;;;;22.73;13.35;;;;;;;;;;5041673;28;20057;-68
2023/03/01 09:37:29;;;;;;;25.08;14.50;;;;;;;;;;5041574;28;20064;-68
2023/03/01 09:39:55;;;;;;;20.95;12.85;;;;;;;;;;5041205;28;20052;-69
2023/03/01 09:42:21;;;;;;;27.38;16.45;;;;;;;;;;5041313;28;20052;-68
2023/03/01 09:45:00;;;;;;;17.52;11.80;;;;;;;;;;5042425;28;20052;-67
2023/03/01 09:47:32;;;;;;;29.05;17.30;;;;;;;;;;5041681;28;20742;-69
2023/03/01 09:50:04;;;;;;;28.27;16.27;;;;;;;;;;5040142;28;20052;-69
2023/03/01 09:52:34;;;;;;;25.38;15.00;;;;;;;;;;5041439;28;20041;-68
2023/03/01 09:55:00;;;;;;;27.15;18.15;;;;;;;;;;5041924;28;20086;-68
2023/03/01 09:57:36;;;;;;;26.02;15.85;;;;;;;;;;5041222;28;20044;-69
2023/03/01 10:00:33;;;;;;;26.52;15.07;;;;;;;;;;5041521;28;20454;-69
2023/03/01 10:03:19;;;;;;;20.73;13.23;;;;;;;;;;5041478;28;20159;-69
2023/03/01 10:06:21;;;;;;;24.90;14.13;;;;;;;;;;5024644;28;20056;-69
2023/03/01 10:08:55;;;;;;;31.13;15.95;;;;;;;;;;5042053;28;20049;-69
2023/03/01 10:11:51;;;;;;;24.33;14.50;;;;;;;;;;5040566;28;20045;-69
2023/03/01 10:14:43;;;;;;;30.88;18.00;;;;;;;;;;5041019;28;20135;-68
2023/03/01 10:17:33;;;;;;;26.80;15.98;;;;;;;;;;5041357;28;20143;-69
2023/03/01 10:20:21;;;;;;;25.15;15.65;;;;;;;;;;5041792;28;20529;-69
2023/03/01 10:22:52;;;;;;;30.60;18.08;;;;;;;;;;5041539;28;20749;-69
2023/03/01 10:25:29;;;;;;;31.13;19.25;;;;;;;;;;5040690;28;20041;-69
2023/03/01 10:28:02;;;;;;;26.23;16.05;;;;;;;;;;5041778;28;20144;-69
2023/03/01 10:30:41;;;;;;;28.08;16.67;;;;;;;;;;5041206;28;20429;-69
2023/03/01 10:33:24;;;;;;;28.55;17.17;;;;;;;;;;5039866;28;20053;-71
2023/03/01 10:35:49;;;;;;;32.78;17.65;;;;;;;;;;5041382;28;20049;-69
2023/03/01 10:38:16;;;;;;;24.35;15.43;;;;;;;;;;5041843;28;20057;-69
2023/03/01 10:40:57;;;;;;;23.00;12.38;;;;;;;;;;5040484;28;20060;-69
2023/03/01 10:43:24;;;;;;;25.17;14.63;;;;;;;;;;5040926;28;20048;-69
2023/03/01 10:45:50;;;;;;;26.50;16.85;;;;;;;;;;5041818;28;20186;-69
2023/03/01 10:48:19;;;;;;;29.33;15.23;;;;;;;;;;5041187;28;20557;-69
2023/03/01 10:50:50;;;;;;;23.63;14.02;;;;;;;;;;5040974;28;20052;-69
2023/03/01 10:53:26;;;;;;;25.45;16.75;;;;;;;;;;5040733;28;20569;-69
2023/03/01 10:56:00;;;;;;;25.70;15.70;;;;;;;;;;5041405;28;20118;-69
2023/03/01 10:58:26;;;;;;;24.00;15.18;;;;;;;;;;5040654;28;20509;-69
2023/03/01 11:00:54;;;;;;;27.67;17.42;;;;;;;;;;5040412;28;20107;-69
2023/03/01 11:03:27;;;;;;;27.52;15.25;;;;;;;;;;5035571;28;20048;-68
2023/03/01 11:05:56;;;;;;;20.73;13.38;;;;;;;;;;5041195;28;20048;-69
2023/03/01 11:08:45;;;;;;;29.15;16.42;;;;;;;;;;5040603;28;20052;-69
2023/03/01 11:11:21;;;;;;;25.98;16.88;;;;;;;;;;5038107;28;20056;-70
2023/03/01 11:13:54;;;;;;;26.60;16.95;;;;;;;;;;5041118;28;20045;-69
2023/03/01 11:16:34;;;;;;;27.67;17.67;;;;;;;;;;5040655;28;20040;-70
2023/03/01 11:19:08;;;;;;;28.33;16.17;;;;;;;;;;5037801;28;20068;-71
2023/03/01 11:21:43;;;;;;;26.15;17.45;;;;;;;;;;5038121;28;20140;-70
2023/03/01 11:24:12;;;;;;;29.70;17.70;;;;;;;;;;5040386;28;20079;-72
2023/03/01 11:26:42;;;;;;;25.90;17.35;;;;;;;;;;5040635;28;20114;-68
2023/03/01 11:29:37;;;;;;;26.13;16.45;;;;;;;;;;5039258;28;20661;-71
2023/03/01 11:32:08;;;;;;;26.58;16.50;;;;;;;;;;5039651;28;20080;-71
2023/03/01 11:34:43;;;;;;;25.45;17.08;;;;;;;;;;5040624;28;20056;-72
2023/03/01 11:37:22;;;;;;;28.67;15.95;;;;;;;;;;5040363;28;20635;-70
2023/03/01 11:39:58;;;;;;;28.50;16.88;;;;;;;;;;5039324;28;20063;-72
2023/03/01 11:42:35;;;;;;;25.73;15.80;;;;;;;;;;5039578;28;20036;-70
2023/03/01 11:45:08;;;;;;;22.80;15.15;;;;;;;;;;5037995;28;20666;-75
2023/03/01 11:47:39;;;;;;;24.90;16.55;;;;;;;;;;5038226;28;20060;-71
2023/03/01 11:50:20;;;;;;;28.35;17.77;;;;;;;;;;5038041;28;20147;-73
2023/03/01 11:53:15;;;;;;;24.23;14.85;;;;;;;;;;5038143;28;20049;-69
2023/03/01 11:55:50;;;;;;;24.27;16.08;;;;;;;;;;5036474;28;20052;-70
2023/03/01 11:58:45;;;;;;;19.77;12.00;;;;;;;;;;5039877;28;20045;-69
2023/03/01 12:01:43;;;;;;;26.65;16.17;;;;;;;;;;5037167;28;20114;-72
2023/03/01 12:04:15;;;;;;;26.83;16.63;;;;;;;;;;5038797;28;20044;-71
2023/03/01 12:06:49;;;;;;;25.57;17.00;;;;;;;;;;5038791;28;20041;-70
2023/03/01 12:09:35;;;;;;;24.85;16.73;;;;;;;;;;5039011;28;20516;-72
2023/03/01 12:12:16;;;;;;;27.80;16.98;;;;;;;;;;5035208;28;20086;-70
2023/03/01 12:15:06;;;;;;;26.83;15.07;;;;;;;;;;5033383;28;20040;-72
2023/03/01 12:17:38;;;;;;;25.27;15.70;;;;;;;;;;5035086;28;20041;-73
2023/03/01 12:20:27;;;;;;;27.52;17.48;;;;;;;;;;5038799;28;20505;-70
2023/03/01 12:23:19;;;;;;;28.20;17.38;;;;;;;;;;5019011;28;20049;-70
2023/03/01 12:25:58;;;;;;;30.75;16.85;;;;;;;;;;5018314;28;20092;-71
2023/03/01 12:28:43;;;;;;;26.20;15.75;;;;;;;;;;5035220;28;20204;-71
2023/03/01 12:31:25;;;;;;;27.83;16.25;;;;;;;;;;5033296;28;20060;-71
2023/03/01 12:34:02;;;;;;;27.48;15.95;;;;;;;;;;5032302;28;20041;-73
2023/03/01 12:36:58;;;;;;;23.38;14.75;;;;;;;;;;5036673;28;20049;-69
2023/03/01 12:39:35;;;;;;;30.70;16.70;;;;;;;;;;5036331;28;20706;-71
2023/03/01 12:42:04;;;;;;;27.65;15.80;;;;;;;;;;5034222;28;20049;-69
2023/03/01 12:44:42;;;;;;;29.80;16.70;;;;;;;;;;5038798;28;20041;-69
2023/03/01 12:47:25;;;;;;;29.83;17.20;;;;;;;;;;5037264;28;20045;-70
2023/03/01 12:49:57;;;;;;;26.45;14.75;;;;;;;;;;5037658;28;20052;-69
2023/03/01 12:52:28;;;;;;;31.20;17.17;;;;;;;;;;5039983;28;20032;-69
2023/03/01 12:54:57;;;;;;;30.63;19.17;;;;;;;;;;5038022;28;20150;-69
2023/03/01 12:57:40;;;;;;;30.92;16.40;;;;;;;;;;5040256;28;20044;-70
2023/03/01 13:00:30;;;;;;;26.98;17.63;;;;;;;;;;5038738;28;20104;-69
2023/03/01 13:03:14;;;;;;;21.17;13.57;;;;;;;;;;5040579;28;20044;-69
2023/03/01 13:06:08;;;;;;;29.75;20.00;;;;;;;;;;5024541;28;20477;-70
2023/03/01 13:08:49;;;;;;;27.30;17.60;;;;;;;;;;5044004;28;20036;-69
2023/03/01 13:11:19;;;;;;;24.67;16.03;;;;;;;;;;5042167;28;20056;-71
2023/03/01 13:13:46;;;;;;;28.33;16.52;;;;;;;;;;5043266;28;20279;-70
2023/03/01 13:16:29;;;;;;;31.02;18.95;;;;;;;;;;5043786;28;20044;-67
2023/03/01 13:19:16;;;;;;;25.27;14.35;;;;;;;;;;5044869;28;20604;-67
2023/03/01 13:21:44;;;;;;;28.92;17.10;;;;;;;;;;5029347;28;20063;-67
2023/03/01 13:24:31;;;;;;;28.58;17.95;;;;;;;;;;5044559;28;20044;-67
2023/03/01 13:27:10;;;;;;;26.17;16.58;;;;;;;;;;5044023;28;20041;-67
2023/03/01 13:29:47;;;;;;;29.58;17.55;;;;;;;;;;5026873;28;20049;-69
2023/03/01 13:32:38;;;;;;;27.40;17.42;;;;;;;;;;5040038;28;20517;-68
2023/03/01 13:35:09;;;;;;;30.35;18.63;;;;;;;;;;5040258;28;20083;-69
2023/03/01 13:37:37;;;;;;;30.58;19.00;;;;;;;;;;5040104;28;20132;-68
2023/03/01 13:40:23;;;;;;;28.10;18.40;;;;;;;;;;5039706;28;20049;-70
2023/03/01 13:42:50;;;;;;;30.05;20.08;;;;;;;;;;5039056;28;20052;-68
2023/03/01 13:45:32;;;;;;;28.50;17.77;;;;;;;;;;5039544;28;20421;-70
2023/03/01 13:48:08;;;;;;;28.58;18.38;;;;;;;;;;5040925;28;20182;-69
2023/03/01 13:50:44;;;;;;;27.85;18.58;;;;;;;;;;5039811;28;20052;-69
2023/03/01 13:53:14;;;;;;;32.42;19.02;;;;;;;;;;5039510;28;20101;-69
2023/03/01 13:55:45;;;;;;;31.60;18.05;;;;;;;;;;5040538;28;20067;-69
2023/03/01 13:58:46;;;;;;;36.20;18.48;;;;;;;;;;5040679;28;20335;-69
2023/03/01 14:01:28;;;;;;;30.40;18.02;;;;;;;;;;5038678;28;20083;-70
2023/03/01 14:03:55;;;;;;;29.50;17.17;;;;;;;;;;5040448;28;20052;-69
2023/03/01 14:06:32;;;;;;;31.67;17.15;;;;;;;;;;5040675;28;20199;-69
2023/03/01 14:09:19;;;;;;;27.83;17.33;;;;;;;;;;5041460;28;20049;-66
2023/03/01 14:11:57;;;;;;;24.60;15.20;;;;;;;;;;5030375;28;20053;-66
2023/03/01 14:14:41;;;;;;;24.02;14.63;;;;;;;;;;5043298;28;20064;-66
2023/03/01 14:17:33;;;;;;;28.88;15.40;;;;;;;;;;5043268;28;20562;-68
2023/03/01 14:20:04;;;;;;;27.48;16.50;;;;;;;;;;5043463;28;20436;-66
2023/03/01 14:22:34;;;;;;;24.88;15.43;;;;;;;;;;5043810;28;20493;-65
2023/03/01 14:25:06;;;;;;;33.90;16.60;;;;;;;;;;5044249;28;20583;-66
2023/03/01 14:27:44;;;;;;;;;;;;;;;;;;5042576;28;20076;-65
2023/03/01 14:30:19;;;;;;;26.58;15.88;;;;;;;;;;5042813;28;19921;-66
2023/03/01 14:32:53;;;;;;;27.48;16.13;;;;;;;;;;5043997;28;20113;-66
2023/03/01 14:35:25;;;;;;;31.05;18.17;;;;;;;;;;5041149;28;20055;-66
2023/03/01 14:37:50;;;;;;;19.65;13.00;;;;;;;;;;5041327;28;20500;-66
2023/03/01 14:40:28;;;;;;;26.90;15.63;;;;;;;;;;5020995;28;20049;-66
2023/03/01 14:42:56;;;;;;;26.08;13.95;;;;;;;;;;5039367;28;20056;-66
2023/03/01 14:45:24;;;;;;;29.83;16.10;;;;;;;;;;5038693;28;20041;-66
2023/03/01 14:47:50;;;;;;;27.25;15.88;;;;;;;;;;5040232;28;20178;-66
2023/03/01 14:50:23;;;;;;;29.65;17.77;;;;;;;;;;5037564;28;20067;-66